sensor_id;sensor_type;location;lat;lon;timestamp;temperature;humidity
71082;SHT31;58740;50.672;18.690;2022-12-11T00:01:12;1.36;85.66
71082;SHT31;58740;50.672;18.690;2022-12-11T00:03:44;1.33;85.69
71082;SHT31;58740;50.672;18.690;2022-12-11T00:06:13;1.33;85.83
71082;SHT31;58740;50.672;18.690;2022-12-11T00:08:44;1.35;85.90
71082;SHT31;58740;50.672;18.690;2022-12-11T00:11:15;1.38;85.83
71082;SHT31;58740;50.672;18.690;2022-12-11T00:13:43;1.38;85.78
71082;SHT31;58740;50.672;18.690;2022-12-11T00:16:11;1.38;85.73
71082;SHT31;58740;50.672;18.690;2022-12-11T00:18:39;1.36;85.74
71082;SHT31;58740;50.672;18.690;2022-12-11T00:21:09;1.35;85.74
71082;SHT31;58740;50.672;18.690;2022-12-11T00:23:40;1.32;85.70
71082;SHT31;58740;50.672;18.690;2022-12-11T00:26:10;1.30;85.78
71082;SHT31;58740;50.672;18.690;2022-12-11T00:28:41;1.30;85.84
71082;SHT31;58740;50.672;18.690;2022-12-11T00:31:15;1.33;85.87
71082;SHT31;58740;50.672;18.690;2022-12-11T00:33:44;1.35;85.87
71082;SHT31;58740;50.672;18.690;2022-12-11T00:36:18;1.38;85.97
71082;SHT31;58740;50.672;18.690;2022-12-11T00:38:52;1.40;85.83
71082;SHT31;58740;50.672;18.690;2022-12-11T00:41:20;1.38;85.83
71082;SHT31;58740;50.672;18.690;2022-12-11T00:43:49;1.36;85.91
71082;SHT31;58740;50.672;18.690;2022-12-11T00:46:17;1.35;85.96
71082;SHT31;58740;50.672;18.690;2022-12-11T00:48:45;1.33;85.98
71082;SHT31;58740;50.672;18.690;2022-12-11T00:51:15;1.31;85.94
71082;SHT31;58740;50.672;18.690;2022-12-11T00:53:44;1.30;85.95
71082;SHT31;58740;50.672;18.690;2022-12-11T00:56:12;1.31;85.93
71082;SHT31;58740;50.672;18.690;2022-12-11T00:58:47;1.33;85.92
71082;SHT31;58740;50.672;18.690;2022-12-11T01:01:17;1.33;85.90
71082;SHT31;58740;50.672;18.690;2022-12-11T01:03:49;1.35;85.87
71082;SHT31;58740;50.672;18.690;2022-12-11T01:06:19;1.35;85.84
71082;SHT31;58740;50.672;18.690;2022-12-11T01:08:50;1.32;85.76
71082;SHT31;58740;50.672;18.690;2022-12-11T01:11:37;1.28;85.74
71082;SHT31;58740;50.672;18.690;2022-12-11T01:14:06;1.26;85.86
71082;SHT31;58740;50.672;18.690;2022-12-11T01:16:34;1.24;85.83
71082;SHT31;58740;50.672;18.690;2022-12-11T01:19:02;1.24;85.95
71082;SHT31;58740;50.672;18.690;2022-12-11T01:21:30;1.23;85.80
71082;SHT31;58740;50.672;18.690;2022-12-11T01:23:58;1.23;85.94
71082;SHT31;58740;50.672;18.690;2022-12-11T01:26:26;1.24;85.83
71082;SHT31;58740;50.672;18.690;2022-12-11T01:28:53;1.21;85.73
71082;SHT31;58740;50.672;18.690;2022-12-11T01:31:21;1.16;85.79
71082;SHT31;58740;50.672;18.690;2022-12-11T01:33:49;1.16;85.77
71082;SHT31;58740;50.672;18.690;2022-12-11T01:36:18;1.17;85.75
71082;SHT31;58740;50.672;18.690;2022-12-11T01:38:48;1.21;85.76
71082;SHT31;58740;50.672;18.690;2022-12-11T01:41:17;1.22;85.62
71082;SHT31;58740;50.672;18.690;2022-12-11T01:46:42;1.13;85.65
71082;SHT31;58740;50.672;18.690;2022-12-11T01:49:11;1.09;85.74
71082;SHT31;58740;50.672;18.690;2022-12-11T01:51:52;1.07;85.77
71082;SHT31;58740;50.672;18.690;2022-12-11T01:54:25;1.07;85.72
71082;SHT31;58740;50.672;18.690;2022-12-11T01:56:57;1.08;85.80
71082;SHT31;58740;50.672;18.690;2022-12-11T01:59:32;1.10;85.80
71082;SHT31;58740;50.672;18.690;2022-12-11T02:02:06;1.13;85.82
71082;SHT31;58740;50.672;18.690;2022-12-11T02:04:44;1.15;85.81
71082;SHT31;58740;50.672;18.690;2022-12-11T02:07:13;1.12;85.73
71082;SHT31;58740;50.672;18.690;2022-12-11T02:09:42;1.05;85.81
71082;SHT31;58740;50.672;18.690;2022-12-11T02:12:30;0.99;85.93
71082;SHT31;58740;50.672;18.690;2022-12-11T02:20:59;0.95;86.01
71082;SHT31;58740;50.672;18.690;2022-12-11T02:29:29;0.79;86.03
71082;SHT31;58740;50.672;18.690;2022-12-11T02:32:50;0.78;86.12
71082;SHT31;58740;50.672;18.690;2022-12-11T02:38:02;0.76;86.35
71082;SHT31;58740;50.672;18.690;2022-12-11T02:40:38;0.79;86.41
71082;SHT31;58740;50.672;18.690;2022-12-11T02:43:10;0.80;86.32
71082;SHT31;58740;50.672;18.690;2022-12-11T02:45:42;0.78;86.47
71082;SHT31;58740;50.672;18.690;2022-12-11T02:48:13;0.77;86.48
71082;SHT31;58740;50.672;18.690;2022-12-11T02:50:47;0.76;86.49
71082;SHT31;58740;50.672;18.690;2022-12-11T02:53:21;0.79;86.47
71082;SHT31;58740;50.672;18.690;2022-12-11T02:56:13;0.77;86.36
71082;SHT31;58740;50.672;18.690;2022-12-11T02:58:49;0.77;86.46
71082;SHT31;58740;50.672;18.690;2022-12-11T03:01:25;0.79;86.47
71082;SHT31;58740;50.672;18.690;2022-12-11T03:03:54;0.77;86.34
71082;SHT31;58740;50.672;18.690;2022-12-11T03:06:26;0.71;86.48
71082;SHT31;58740;50.672;18.690;2022-12-11T03:09:03;0.70;86.62
71082;SHT31;58740;50.672;18.690;2022-12-11T03:11:32;0.70;86.54
71082;SHT31;58740;50.672;18.690;2022-12-11T03:13:59;0.69;86.51
71082;SHT31;58740;50.672;18.690;2022-12-11T03:16:36;0.69;86.58
71082;SHT31;58740;50.672;18.690;2022-12-11T03:19:26;0.72;86.52
71082;SHT31;58740;50.672;18.690;2022-12-11T03:25:06;0.70;86.52
71082;SHT31;58740;50.672;18.690;2022-12-11T03:28:02;0.68;86.41
71082;SHT31;58740;50.672;18.690;2022-12-11T03:30:40;0.63;86.38
71082;SHT31;58740;50.672;18.690;2022-12-11T03:33:14;0.60;86.31
71082;SHT31;58740;50.672;18.690;2022-12-11T03:35:51;0.61;86.31
71082;SHT31;58740;50.672;18.690;2022-12-11T03:38:25;0.63;86.26
71082;SHT31;58740;50.672;18.690;2022-12-11T03:41:00;0.61;86.30
71082;SHT31;58740;50.672;18.690;2022-12-11T03:43:30;0.61;86.25
71082;SHT31;58740;50.672;18.690;2022-12-11T03:46:00;0.59;86.30
71082;SHT31;58740;50.672;18.690;2022-12-11T03:48:30;0.54;86.32
71082;SHT31;58740;50.672;18.690;2022-12-11T03:51:05;0.53;86.53
71082;SHT31;58740;50.672;18.690;2022-12-11T03:53:34;0.54;86.48
71082;SHT31;58740;50.672;18.690;2022-12-11T03:56:05;0.56;86.54
71082;SHT31;58740;50.672;18.690;2022-12-11T03:58:36;0.52;86.50
71082;SHT31;58740;50.672;18.690;2022-12-11T04:01:07;0.45;86.72
71082;SHT31;58740;50.672;18.690;2022-12-11T04:03:37;0.41;86.88
71082;SHT31;58740;50.672;18.690;2022-12-11T04:06:05;0.34;86.91
71082;SHT31;58740;50.672;18.690;2022-12-11T04:08:34;0.32;87.02
71082;SHT31;58740;50.672;18.690;2022-12-11T04:11:02;0.32;86.99
71082;SHT31;58740;50.672;18.690;2022-12-11T04:13:50;0.33;86.90
71082;SHT31;58740;50.672;18.690;2022-12-11T04:16:38;0.32;86.79
71082;SHT31;58740;50.672;18.690;2022-12-11T04:19:05;0.27;86.71
71082;SHT31;58740;50.672;18.690;2022-12-11T04:21:52;0.22;86.81
71082;SHT31;58740;50.672;18.690;2022-12-11T04:24:39;0.16;86.95
71082;SHT31;58740;50.672;18.690;2022-12-11T04:27:07;0.13;87.13
71082;SHT31;58740;50.672;18.690;2022-12-11T04:29:34;0.14;87.13
71082;SHT31;58740;50.672;18.690;2022-12-11T04:32:02;0.14;87.10
71082;SHT31;58740;50.672;18.690;2022-12-11T04:34:30;0.14;87.07
71082;SHT31;58740;50.672;18.690;2022-12-11T04:36:58;0.11;87.07
71082;SHT31;58740;50.672;18.690;2022-12-11T04:39:26;0.06;87.20
71082;SHT31;58740;50.672;18.690;2022-12-11T04:41:53;0.06;87.31
71082;SHT31;58740;50.672;18.690;2022-12-11T04:44:21;0.08;87.34
71082;SHT31;58740;50.672;18.690;2022-12-11T04:46:49;0.09;87.31
71082;SHT31;58740;50.672;18.690;2022-12-11T04:49:17;0.09;87.24
71082;SHT31;58740;50.672;18.690;2022-12-11T04:51:44;0.07;87.23
71082;SHT31;58740;50.672;18.690;2022-12-11T04:54:12;0.05;87.35
71082;SHT31;58740;50.672;18.690;2022-12-11T04:56:40;0.09;87.29
71082;SHT31;58740;50.672;18.690;2022-12-11T04:59:07;0.10;87.05
71082;SHT31;58740;50.672;18.690;2022-12-11T05:01:36;0.10;86.98
71082;SHT31;58740;50.672;18.690;2022-12-11T05:04:03;0.11;86.80
71082;SHT31;58740;50.672;18.690;2022-12-11T05:06:31;0.07;86.50
71082;SHT31;58740;50.672;18.690;2022-12-11T05:08:59;0.05;86.53
71082;SHT31;58740;50.672;18.690;2022-12-11T05:11:27;0.03;86.53
71082;SHT31;58740;50.672;18.690;2022-12-11T05:13:54;0.02;86.58
71082;SHT31;58740;50.672;18.690;2022-12-11T05:16:22;0.01;86.49
71082;SHT31;58740;50.672;18.690;2022-12-11T05:18:50;0.01;86.49
71082;SHT31;58740;50.672;18.690;2022-12-11T05:21:17;0.03;86.56
71082;SHT31;58740;50.672;18.690;2022-12-11T05:23:45;0.06;86.51
71082;SHT31;58740;50.672;18.690;2022-12-11T05:26:14;0.06;86.27
71082;SHT31;58740;50.672;18.690;2022-12-11T05:28:47;0.05;86.30
71082;SHT31;58740;50.672;18.690;2022-12-11T05:31:20;0.03;86.24
71082;SHT31;58740;50.672;18.690;2022-12-11T05:33:52;0.00;86.29
71082;SHT31;58740;50.672;18.690;2022-12-11T05:36:22;-0.03;86.32
71082;SHT31;58740;50.672;18.690;2022-12-11T05:38:53;-0.03;86.42
71082;SHT31;58740;50.672;18.690;2022-12-11T05:41:23;-0.00;86.33
71082;SHT31;58740;50.672;18.690;2022-12-11T05:43:53;-0.02;86.23
71082;SHT31;58740;50.672;18.690;2022-12-11T05:46:23;-0.06;86.17
71082;SHT31;58740;50.672;18.690;2022-12-11T05:48:57;-0.10;86.31
71082;SHT31;58740;50.672;18.690;2022-12-11T05:51:28;-0.13;86.44
71082;SHT31;58740;50.672;18.690;2022-12-11T05:53:57;-0.15;86.38
71082;SHT31;58740;50.672;18.690;2022-12-11T05:56:26;-0.14;86.40
71082;SHT31;58740;50.672;18.690;2022-12-11T05:58:58;-0.16;86.23
71082;SHT31;58740;50.672;18.690;2022-12-11T06:01:29;-0.20;86.32
71082;SHT31;58740;50.672;18.690;2022-12-11T06:03:57;-0.24;86.26
71082;SHT31;58740;50.672;18.690;2022-12-11T06:06:26;-0.28;86.22
71082;SHT31;58740;50.672;18.690;2022-12-11T06:08:55;-0.32;86.22
71082;SHT31;58740;50.672;18.690;2022-12-11T06:11:26;-0.33;86.31
71082;SHT31;58740;50.672;18.690;2022-12-11T06:13:56;-0.33;86.44
71082;SHT31;58740;50.672;18.690;2022-12-11T06:16:25;-0.36;86.52
71082;SHT31;58740;50.672;18.690;2022-12-11T06:18:53;-0.41;86.66
71082;SHT31;58740;50.672;18.690;2022-12-11T06:21:29;-0.43;86.82
71082;SHT31;58740;50.672;18.690;2022-12-11T06:24:00;-0.41;86.91
71082;SHT31;58740;50.672;18.690;2022-12-11T06:26:30;-0.40;86.99
71082;SHT31;58740;50.672;18.690;2022-12-11T06:28:58;-0.39;87.21
71082;SHT31;58740;50.672;18.690;2022-12-11T06:31:26;-0.36;87.29
71082;SHT31;58740;50.672;18.690;2022-12-11T06:33:54;-0.36;87.27
71082;SHT31;58740;50.672;18.690;2022-12-11T06:36:23;-0.39;87.33
71082;SHT31;58740;50.672;18.690;2022-12-11T06:38:51;-0.40;87.52
71082;SHT31;58740;50.672;18.690;2022-12-11T06:41:19;-0.42;87.60
71082;SHT31;58740;50.672;18.690;2022-12-11T06:43:49;-0.43;87.69
71082;SHT31;58740;50.672;18.690;2022-12-11T06:46:17;-0.41;87.71
71082;SHT31;58740;50.672;18.690;2022-12-11T06:48:47;-0.43;87.75
71082;SHT31;58740;50.672;18.690;2022-12-11T06:51:17;-0.41;87.80
71082;SHT31;58740;50.672;18.690;2022-12-11T06:53:51;-0.42;87.80
71082;SHT31;58740;50.672;18.690;2022-12-11T06:56:22;-0.39;87.73
71082;SHT31;58740;50.672;18.690;2022-12-11T06:58:51;-0.40;87.62
71082;SHT31;58740;50.672;18.690;2022-12-11T07:01:20;-0.44;87.48
71082;SHT31;58740;50.672;18.690;2022-12-11T07:03:57;-0.50;87.50
71082;SHT31;58740;50.672;18.690;2022-12-11T07:06:27;-0.58;87.55
71082;SHT31;58740;50.672;18.690;2022-12-11T07:08:56;-0.61;87.63
71082;SHT31;58740;50.672;18.690;2022-12-11T07:11:25;-0.64;87.47
71082;SHT31;58740;50.672;18.690;2022-12-11T07:13:52;-0.65;87.32
71082;SHT31;58740;50.672;18.690;2022-12-11T07:16:20;-0.67;87.23
71082;SHT31;58740;50.672;18.690;2022-12-11T07:18:48;-0.67;87.30
71082;SHT31;58740;50.672;18.690;2022-12-11T07:21:18;-0.66;87.17
71082;SHT31;58740;50.672;18.690;2022-12-11T07:23:47;-0.65;87.14
71082;SHT31;58740;50.672;18.690;2022-12-11T07:26:17;-0.65;86.89
71082;SHT31;58740;50.672;18.690;2022-12-11T07:28:48;-0.69;86.84
71082;SHT31;58740;50.672;18.690;2022-12-11T07:31:17;-0.75;86.97
71082;SHT31;58740;50.672;18.690;2022-12-11T07:33:53;-0.83;87.15
71082;SHT31;58740;50.672;18.690;2022-12-11T07:36:29;-0.84;87.23
71082;SHT31;58740;50.672;18.690;2022-12-11T07:38:59;-0.83;87.27
71082;SHT31;58740;50.672;18.690;2022-12-11T07:41:27;-0.81;87.17
71082;SHT31;58740;50.672;18.690;2022-12-11T07:43:55;-0.84;87.05
71082;SHT31;58740;50.672;18.690;2022-12-11T07:46:24;-0.85;87.21
71082;SHT31;58740;50.672;18.690;2022-12-11T07:48:55;-0.89;87.16
71082;SHT31;58740;50.672;18.690;2022-12-11T07:51:24;-0.89;87.41
71082;SHT31;58740;50.672;18.690;2022-12-11T07:54:02;-0.88;87.37
71082;SHT31;58740;50.672;18.690;2022-12-11T07:56:34;-0.88;87.52
71082;SHT31;58740;50.672;18.690;2022-12-11T07:59:04;-0.88;87.35
71082;SHT31;58740;50.672;18.690;2022-12-11T08:01:34;-0.86;87.13
71082;SHT31;58740;50.672;18.690;2022-12-11T08:04:04;-0.86;86.79
71082;SHT31;58740;50.672;18.690;2022-12-11T08:06:35;-0.88;86.65
71082;SHT31;58740;50.672;18.690;2022-12-11T08:09:08;-0.90;86.63
71082;SHT31;58740;50.672;18.690;2022-12-11T08:11:48;-0.96;86.90
71082;SHT31;58740;50.672;18.690;2022-12-11T08:14:17;-0.96;87.19
71082;SHT31;58740;50.672;18.690;2022-12-11T08:16:48;-0.95;86.91
71082;SHT31;58740;50.672;18.690;2022-12-11T08:19:16;-0.93;86.63
71082;SHT31;58740;50.672;18.690;2022-12-11T08:21:44;-0.95;86.41
71082;SHT31;58740;50.672;18.690;2022-12-11T08:24:12;-0.98;86.63
71082;SHT31;58740;50.672;18.690;2022-12-11T08:26:42;-1.00;86.58
71082;SHT31;58740;50.672;18.690;2022-12-11T08:29:10;-1.00;86.62
71082;SHT31;58740;50.672;18.690;2022-12-11T08:31:38;-1.01;86.65
71082;SHT31;58740;50.672;18.690;2022-12-11T08:34:08;-1.01;86.71
71082;SHT31;58740;50.672;18.690;2022-12-11T08:36:40;-1.00;86.76
71082;SHT31;58740;50.672;18.690;2022-12-11T08:39:08;-1.02;86.79
71082;SHT31;58740;50.672;18.690;2022-12-11T08:41:36;-1.00;86.99
71082;SHT31;58740;50.672;18.690;2022-12-11T08:44:03;-0.99;86.94
71082;SHT31;58740;50.672;18.690;2022-12-11T08:46:32;-1.05;86.99
71082;SHT31;58740;50.672;18.690;2022-12-11T08:49:00;-1.07;87.26
71082;SHT31;58740;50.672;18.690;2022-12-11T08:51:28;-1.06;87.37
71082;SHT31;58740;50.672;18.690;2022-12-11T08:53:58;-1.06;87.31
71082;SHT31;58740;50.672;18.690;2022-12-11T08:56:28;-1.04;87.30
71082;SHT31;58740;50.672;18.690;2022-12-11T08:58:58;-1.00;87.17
71082;SHT31;58740;50.672;18.690;2022-12-11T09:01:27;-0.99;87.05
71082;SHT31;58740;50.672;18.690;2022-12-11T09:03:59;-0.96;87.09
71082;SHT31;58740;50.672;18.690;2022-12-11T09:06:27;-0.94;86.91
71082;SHT31;58740;50.672;18.690;2022-12-11T09:08:58;-0.96;86.80
71082;SHT31;58740;50.672;18.690;2022-12-11T09:11:29;-0.95;86.67
71082;SHT31;58740;50.672;18.690;2022-12-11T09:14:00;-0.94;86.63
71082;SHT31;58740;50.672;18.690;2022-12-11T09:16:35;-0.92;86.51
71082;SHT31;58740;50.672;18.690;2022-12-11T09:19:07;-0.93;86.44
71082;SHT31;58740;50.672;18.690;2022-12-11T09:21:44;-0.96;86.36
71082;SHT31;58740;50.672;18.690;2022-12-11T09:24:12;-0.96;86.52
71082;SHT31;58740;50.672;18.690;2022-12-11T09:26:40;-0.96;86.37
71082;SHT31;58740;50.672;18.690;2022-12-11T09:29:09;-0.93;86.37
71082;SHT31;58740;50.672;18.690;2022-12-11T09:31:38;-0.91;85.98
71082;SHT31;58740;50.672;18.690;2022-12-11T09:34:07;-0.90;85.69
71082;SHT31;58740;50.672;18.690;2022-12-11T09:36:39;-0.94;85.50
71082;SHT31;58740;50.672;18.690;2022-12-11T09:39:09;-0.97;85.54
71082;SHT31;58740;50.672;18.690;2022-12-11T09:41:47;-1.02;85.34
71082;SHT31;58740;50.672;18.690;2022-12-11T09:44:29;-1.08;85.61
71082;SHT31;58740;50.672;18.690;2022-12-11T09:53:11;-1.18;86.11
71082;SHT31;58740;50.672;18.690;2022-12-11T09:55:55;-1.21;86.10
71082;SHT31;58740;50.672;18.690;2022-12-11T10:07:40;-1.20;86.10
71082;SHT31;58740;50.672;18.690;2022-12-11T10:10:33;-1.21;85.95
71082;SHT31;58740;50.672;18.690;2022-12-11T10:16:34;-1.21;85.99
71082;SHT31;58740;50.672;18.690;2022-12-11T10:19:16;-1.17;86.05
71082;SHT31;58740;50.672;18.690;2022-12-11T10:21:48;-1.22;85.82
71082;SHT31;58740;50.672;18.690;2022-12-11T10:24:21;-1.29;86.02
71082;SHT31;58740;50.672;18.690;2022-12-11T10:27:24;-1.31;86.32
71082;SHT31;58740;50.672;18.690;2022-12-11T10:30:18;-1.27;86.44
71082;SHT31;58740;50.672;18.690;2022-12-11T10:41:05;-1.21;86.24
71082;SHT31;58740;50.672;18.690;2022-12-11T10:43:44;-1.19;86.10
71082;SHT31;58740;50.672;18.690;2022-12-11T10:46:17;-1.13;86.03
71082;SHT31;58740;50.672;18.690;2022-12-11T10:48:53;-1.09;85.64
71082;SHT31;58740;50.672;18.690;2022-12-11T10:51:31;-1.08;85.81
71082;SHT31;58740;50.672;18.690;2022-12-11T10:56:51;-1.01;85.86
71082;SHT31;58740;50.672;18.690;2022-12-11T10:59:34;-1.00;85.81
71082;SHT31;58740;50.672;18.690;2022-12-11T11:02:30;-1.01;85.50
71082;SHT31;58740;50.672;18.690;2022-12-11T11:08:11;-0.99;85.72
71082;SHT31;58740;50.672;18.690;2022-12-11T11:10:53;-0.99;85.69
71082;SHT31;58740;50.672;18.690;2022-12-11T11:13:26;-0.96;85.97
71082;SHT31;58740;50.672;18.690;2022-12-11T11:16:01;-0.95;85.78
71082;SHT31;58740;50.672;18.690;2022-12-11T11:18:34;-0.95;85.75
71082;SHT31;58740;50.672;18.690;2022-12-11T11:21:02;-0.95;85.78
71082;SHT31;58740;50.672;18.690;2022-12-11T11:23:30;-0.92;85.96
71082;SHT31;58740;50.672;18.690;2022-12-11T11:25:59;-0.86;85.74
71082;SHT31;58740;50.672;18.690;2022-12-11T11:28:33;-0.82;85.51
71082;SHT31;58740;50.672;18.690;2022-12-11T11:31:06;-0.81;85.29
71082;SHT31;58740;50.672;18.690;2022-12-11T11:33:46;-0.79;85.41
71082;SHT31;58740;50.672;18.690;2022-12-11T11:36:28;-0.74;85.44
71082;SHT31;58740;50.672;18.690;2022-12-11T11:42:18;-0.72;84.79
71082;SHT31;58740;50.672;18.690;2022-12-11T11:45:11;-0.74;84.82
71082;SHT31;58740;50.672;18.690;2022-12-11T11:47:53;-0.73;84.77
71082;SHT31;58740;50.672;18.690;2022-12-11T11:50:40;-0.74;84.56
71082;SHT31;58740;50.672;18.690;2022-12-11T11:53:15;-0.74;84.76
71082;SHT31;58740;50.672;18.690;2022-12-11T11:55:57;-0.72;84.66
71082;SHT31;58740;50.672;18.690;2022-12-11T11:58:50;-0.71;84.57
71082;SHT31;58740;50.672;18.690;2022-12-11T12:01:29;-0.72;84.46
71082;SHT31;58740;50.672;18.690;2022-12-11T12:03:57;-0.74;84.24
71082;SHT31;58740;50.672;18.690;2022-12-11T12:09:40;-0.73;84.22
71082;SHT31;58740;50.672;18.690;2022-12-11T12:15:20;-0.75;83.92
71082;SHT31;58740;50.672;18.690;2022-12-11T12:18:19;-0.75;84.24
71082;SHT31;58740;50.672;18.690;2022-12-11T12:21:23;-0.77;83.96
71082;SHT31;58740;50.672;18.690;2022-12-11T12:28:04;-0.80;84.18
71082;SHT31;58740;50.672;18.690;2022-12-11T12:30:24;-0.79;84.03
71082;SHT31;58740;50.672;18.690;2022-12-11T12:33:21;-0.75;84.13
71082;SHT31;58740;50.672;18.690;2022-12-11T12:36:10;-0.73;83.80
71082;SHT31;58740;50.672;18.690;2022-12-11T12:39:00;-0.74;83.80
71082;SHT31;58740;50.672;18.690;2022-12-11T12:41:50;-0.74;83.79
71082;SHT31;58740;50.672;18.690;2022-12-11T12:47:52;-0.75;84.02
71082;SHT31;58740;50.672;18.690;2022-12-11T12:50:24;-0.74;83.83
71082;SHT31;58740;50.672;18.690;2022-12-11T12:53:03;-0.75;83.76
71082;SHT31;58740;50.672;18.690;2022-12-11T12:55:33;-0.75;83.62
71082;SHT31;58740;50.672;18.690;2022-12-11T12:58:04;-0.77;83.57
71082;SHT31;58740;50.672;18.690;2022-12-11T13:03:15;-0.76;83.64
71082;SHT31;58740;50.672;18.690;2022-12-11T13:06:00;-0.77;83.37
71082;SHT31;58740;50.672;18.690;2022-12-11T13:08:41;-0.83;83.46
71082;SHT31;58740;50.672;18.690;2022-12-11T13:11:17;-0.84;83.78
71082;SHT31;58740;50.672;18.690;2022-12-11T13:13:59;-0.84;83.93
71082;SHT31;58740;50.672;18.690;2022-12-11T13:16:35;-0.83;83.81
71082;SHT31;58740;50.672;18.690;2022-12-11T13:21:54;-0.82;83.94
71082;SHT31;58740;50.672;18.690;2022-12-11T13:32:48;-0.69;83.88
71082;SHT31;58740;50.672;18.690;2022-12-11T13:35:24;-0.67;83.66
71082;SHT31;58740;50.672;18.690;2022-12-11T13:37:53;-0.68;83.48
71082;SHT31;58740;50.672;18.690;2022-12-11T13:40:36;-0.73;83.57
71082;SHT31;58740;50.672;18.690;2022-12-11T13:43:28;-0.75;83.76
71082;SHT31;58740;50.672;18.690;2022-12-11T13:45:59;-0.75;83.60
71082;SHT31;58740;50.672;18.690;2022-12-11T13:48:39;-0.77;83.62
71082;SHT31;58740;50.672;18.690;2022-12-11T13:51:24;-0.76;83.54
71082;SHT31;58740;50.672;18.690;2022-12-11T13:59:29;-0.73;83.46
71082;SHT31;58740;50.672;18.690;2022-12-11T14:02:13;-0.73;83.55
71082;SHT31;58740;50.672;18.690;2022-12-11T14:04:50;-0.72;83.67
71082;SHT31;58740;50.672;18.690;2022-12-11T14:07:26;-0.75;83.43
71082;SHT31;58740;50.672;18.690;2022-12-11T14:09:59;-0.77;83.66
71082;SHT31;58740;50.672;18.690;2022-12-11T14:12:34;-0.79;83.66
71082;SHT31;58740;50.672;18.690;2022-12-11T14:15:03;-0.79;83.84
71082;SHT31;58740;50.672;18.690;2022-12-11T14:17:32;-0.77;83.91
71082;SHT31;58740;50.672;18.690;2022-12-11T14:20:03;-0.76;83.82
71082;SHT31;58740;50.672;18.690;2022-12-11T14:22:35;-0.74;83.85
71082;SHT31;58740;50.672;18.690;2022-12-11T14:25:12;-0.72;83.91
71082;SHT31;58740;50.672;18.690;2022-12-11T14:27:53;-0.70;83.98
71082;SHT31;58740;50.672;18.690;2022-12-11T14:30:23;-0.69;83.90
71082;SHT31;58740;50.672;18.690;2022-12-11T14:32:59;-0.70;83.75
71082;SHT31;58740;50.672;18.690;2022-12-11T14:35:32;-0.74;83.75
71082;SHT31;58740;50.672;18.690;2022-12-11T14:38:27;-0.77;83.71
71082;SHT31;58740;50.672;18.690;2022-12-11T14:41:04;-0.81;83.53
71082;SHT31;58740;50.672;18.690;2022-12-11T14:43:44;-0.86;83.45
71082;SHT31;58740;50.672;18.690;2022-12-11T14:46:25;-0.87;83.43
71082;SHT31;58740;50.672;18.690;2022-12-11T14:49:10;-0.88;83.34
71082;SHT31;58740;50.672;18.690;2022-12-11T14:51:52;-0.90;83.16
71082;SHT31;58740;50.672;18.690;2022-12-11T14:57:00;-0.93;83.03
71082;SHT31;58740;50.672;18.690;2022-12-11T14:59:44;-0.95;83.19
71082;SHT31;58740;50.672;18.690;2022-12-11T15:02:34;-0.95;83.37
71082;SHT31;58740;50.672;18.690;2022-12-11T15:07:37;-1.03;83.17
71082;SHT31;58740;50.672;18.690;2022-12-11T15:10:19;-1.07;83.30
71082;SHT31;58740;50.672;18.690;2022-12-11T15:13:02;-1.06;83.47
71082;SHT31;58740;50.672;18.690;2022-12-11T15:15:37;-1.04;83.44
71082;SHT31;58740;50.672;18.690;2022-12-11T15:18:18;-1.04;83.02
71082;SHT31;58740;50.672;18.690;2022-12-11T15:20:52;-1.06;82.94
71082;SHT31;58740;50.672;18.690;2022-12-11T15:23:26;-1.08;82.98
71082;SHT31;58740;50.672;18.690;2022-12-11T15:25:56;-1.10;83.04
71082;SHT31;58740;50.672;18.690;2022-12-11T15:31:21;-1.16;83.00
71082;SHT31;58740;50.672;18.690;2022-12-11T15:34:19;-1.21;83.09
71082;SHT31;58740;50.672;18.690;2022-12-11T15:36:49;-1.20;83.05
71082;SHT31;58740;50.672;18.690;2022-12-11T15:39:17;-1.18;83.31
71082;SHT31;58740;50.672;18.690;2022-12-11T15:41:45;-1.14;83.15
71082;SHT31;58740;50.672;18.690;2022-12-11T15:44:15;-1.12;83.21
71082;SHT31;58740;50.672;18.690;2022-12-11T15:46:48;-1.11;83.10
71082;SHT31;58740;50.672;18.690;2022-12-11T15:49:16;-1.12;83.19
71082;SHT31;58740;50.672;18.690;2022-12-11T15:51:45;-1.13;83.20
71082;SHT31;58740;50.672;18.690;2022-12-11T15:54:13;-1.14;83.11
71082;SHT31;58740;50.672;18.690;2022-12-11T15:56:40;-1.16;83.11
71082;SHT31;58740;50.672;18.690;2022-12-11T15:59:08;-1.18;83.20
71082;SHT31;58740;50.672;18.690;2022-12-11T16:01:37;-1.19;83.23
71082;SHT31;58740;50.672;18.690;2022-12-11T16:04:05;-1.22;83.22
71082;SHT31;58740;50.672;18.690;2022-12-11T16:06:33;-1.23;83.40
71082;SHT31;58740;50.672;18.690;2022-12-11T16:09:00;-1.20;83.31
71082;SHT31;58740;50.672;18.690;2022-12-11T16:11:30;-1.17;83.31
71082;SHT31;58740;50.672;18.690;2022-12-11T16:13:58;-1.14;83.20
71082;SHT31;58740;50.672;18.690;2022-12-11T16:16:30;-1.13;83.34
71082;SHT31;58740;50.672;18.690;2022-12-11T16:18:58;-1.09;83.26
71082;SHT31;58740;50.672;18.690;2022-12-11T16:21:27;-1.08;83.28
71082;SHT31;58740;50.672;18.690;2022-12-11T16:23:55;-1.08;83.28
71082;SHT31;58740;50.672;18.690;2022-12-11T16:26:22;-1.10;83.23
71082;SHT31;58740;50.672;18.690;2022-12-11T16:28:50;-1.13;83.31
71082;SHT31;58740;50.672;18.690;2022-12-11T16:31:18;-1.16;83.38
71082;SHT31;58740;50.672;18.690;2022-12-11T16:33:45;-1.16;83.38
71082;SHT31;58740;50.672;18.690;2022-12-11T16:36:14;-1.14;83.38
71082;SHT31;58740;50.672;18.690;2022-12-11T16:38:45;-1.11;83.29
71082;SHT31;58740;50.672;18.690;2022-12-11T16:41:21;-1.09;83.17
71082;SHT31;58740;50.672;18.690;2022-12-11T16:43:49;-1.07;83.11
71082;SHT31;58740;50.672;18.690;2022-12-11T16:46:18;-1.10;83.01
71082;SHT31;58740;50.672;18.690;2022-12-11T16:48:48;-1.14;83.00
71082;SHT31;58740;50.672;18.690;2022-12-11T16:51:16;-1.16;83.07
71082;SHT31;58740;50.672;18.690;2022-12-11T16:53:44;-1.19;83.06
71082;SHT31;58740;50.672;18.690;2022-12-11T16:56:12;-1.22;83.10
71082;SHT31;58740;50.672;18.690;2022-12-11T16:58:40;-1.25;83.12
71082;SHT31;58740;50.672;18.690;2022-12-11T17:01:09;-1.27;83.23
71082;SHT31;58740;50.672;18.690;2022-12-11T17:03:42;-1.28;83.30
71082;SHT31;58740;50.672;18.690;2022-12-11T17:06:12;-1.27;83.32
71082;SHT31;58740;50.672;18.690;2022-12-11T17:08:43;-1.24;83.37
71082;SHT31;58740;50.672;18.690;2022-12-11T17:11:15;-1.20;83.20
71082;SHT31;58740;50.672;18.690;2022-12-11T17:13:46;-1.19;83.10
71082;SHT31;58740;50.672;18.690;2022-12-11T17:16:18;-1.20;83.05
71082;SHT31;58740;50.672;18.690;2022-12-11T17:18:46;-1.22;83.04
71082;SHT31;58740;50.672;18.690;2022-12-11T17:21:15;-1.23;83.16
71082;SHT31;58740;50.672;18.690;2022-12-11T17:23:44;-1.21;83.26
71082;SHT31;58740;50.672;18.690;2022-12-11T17:26:12;-1.20;83.29
71082;SHT31;58740;50.672;18.690;2022-12-11T17:28:41;-1.21;83.29
71082;SHT31;58740;50.672;18.690;2022-12-11T17:31:14;-1.24;83.21
71082;SHT31;58740;50.672;18.690;2022-12-11T17:33:46;-1.26;83.18